sensor_id;sensor_type;location;lat;lon;timestamp;P1;durP1;ratioP1;P2;durP2;ratioP2
76749;SDS011;66447;35.844;14.468;2023-06-24T00:09:21;34.83;;;9.52;;
76749;SDS011;66447;35.844;14.468;2023-06-24T00:24:22;31.63;;;9.83;;
76749;SDS011;66447;35.844;14.468;2023-06-24T00:39:25;31.97;;;9.23;;
76749;SDS011;66447;35.844;14.468;2023-06-24T00:54:26;35.30;;;10.20;;
76749;SDS011;66447;35.844;14.468;2023-06-24T01:09:31;28.77;;;8.30;;
76749;SDS011;66447;35.844;14.468;2023-06-24T01:40:04;36.17;;;9.70;;
76749;SDS011;66447;35.844;14.468;2023-06-24T01:55:12;30.20;;;9.37;;
76749;SDS011;66447;35.844;14.468;2023-06-24T02:10:16;28.33;;;9.93;;
76749;SDS011;66447;35.844;14.468;2023-06-24T02:25:18;27.73;;;8.70;;
76749;SDS011;66447;35.844;14.468;2023-06-24T02:40:19;28.20;;;8.83;;
76749;SDS011;66447;35.844;14.468;2023-06-24T02:55:20;29.70;;;8.20;;
76749;SDS011;66447;35.844;14.468;2023-06-24T03:10:24;28.30;;;7.47;;
76749;SDS011;66447;35.844;14.468;2023-06-24T03:25:27;26.63;;;8.40;;
76749;SDS011;66447;35.844;14.468;2023-06-24T03:40:28;26.58;;;6.72;;
76749;SDS011;66447;35.844;14.468;2023-06-24T03:55:29;24.13;;;6.82;;
76749;SDS011;66447;35.844;14.468;2023-06-24T04:10:29;24.35;;;6.18;;
76749;SDS011;66447;35.844;14.468;2023-06-24T04:25:30;20.75;;;6.55;;
76749;SDS011;66447;35.844;14.468;2023-06-24T04:40:31;22.63;;;6.20;;
76749;SDS011;66447;35.844;14.468;2023-06-24T04:55:32;24.50;;;5.70;;
76749;SDS011;66447;35.844;14.468;2023-06-24T05:10:33;18.58;;;5.35;;
76749;SDS011;66447;35.844;14.468;2023-06-24T05:25:34;22.67;;;4.93;;
76749;SDS011;66447;35.844;14.468;2023-06-24T05:40:35;27.77;;;5.03;;
76749;SDS011;66447;35.844;14.468;2023-06-24T05:55:36;19.88;;;4.47;;
76749;SDS011;66447;35.844;14.468;2023-06-24T06:10:36;19.73;;;5.10;;
76749;SDS011;66447;35.844;14.468;2023-06-24T06:25:37;19.52;;;4.57;;
76749;SDS011;66447;35.844;14.468;2023-06-24T06:40:38;16.42;;;4.80;;
76749;SDS011;66447;35.844;14.468;2023-06-24T06:55:39;17.00;;;4.97;;
76749;SDS011;66447;35.844;14.468;2023-06-24T07:10:39;22.00;;;4.75;;
76749;SDS011;66447;35.844;14.468;2023-06-24T07:25:41;18.20;;;4.73;;
76749;SDS011;66447;35.844;14.468;2023-06-24T07:40:41;14.73;;;4.35;;
76749;SDS011;66447;35.844;14.468;2023-06-24T07:55:42;16.70;;;4.43;;
76749;SDS011;66447;35.844;14.468;2023-06-24T08:10:44;19.67;;;4.82;;
76749;SDS011;66447;35.844;14.468;2023-06-24T08:25:44;15.27;;;4.40;;
76749;SDS011;66447;35.844;14.468;2023-06-24T08:40:45;15.68;;;4.88;;
76749;SDS011;66447;35.844;14.468;2023-06-24T08:55:47;22.23;;;4.80;;
76749;SDS011;66447;35.844;14.468;2023-06-24T09:10:53;16.93;;;5.20;;
76749;SDS011;66447;35.844;14.468;2023-06-24T09:25:58;19.60;;;5.13;;
76749;SDS011;66447;35.844;14.468;2023-06-24T09:41:02;16.90;;;4.57;;
76749;SDS011;66447;35.844;14.468;2023-06-24T09:56:04;15.87;;;4.73;;
76749;SDS011;66447;35.844;14.468;2023-06-24T10:11:08;21.83;;;4.97;;
76749;SDS011;66447;35.844;14.468;2023-06-24T10:26:11;16.10;;;4.20;;
76749;SDS011;66447;35.844;14.468;2023-06-24T10:41:22;20.57;;;4.60;;
76749;SDS011;66447;35.844;14.468;2023-06-24T10:56:29;14.87;;;4.63;;
76749;SDS011;66447;35.844;14.468;2023-06-24T11:11:31;13.40;;;4.23;;
76749;SDS011;66447;35.844;14.468;2023-06-24T11:26:32;16.65;;;4.97;;
76749;SDS011;66447;35.844;14.468;2023-06-24T11:41:33;10.07;;;3.90;;
76749;SDS011;66447;35.844;14.468;2023-06-24T11:56:34;8.48;;;3.40;;
76749;SDS011;66447;35.844;14.468;2023-06-24T12:11:39;11.20;;;4.30;;
76749;SDS011;66447;35.844;14.468;2023-06-24T12:26:40;18.10;;;4.67;;
76749;SDS011;66447;35.844;14.468;2023-06-24T12:41:41;12.52;;;4.20;;
76749;SDS011;66447;35.844;14.468;2023-06-24T12:56:42;16.10;;;4.03;;
76749;SDS011;66447;35.844;14.468;2023-06-24T13:11:42;14.35;;;5.10;;
76749;SDS011;66447;35.844;14.468;2023-06-24T13:26:43;14.00;;;5.10;;
76749;SDS011;66447;35.844;14.468;2023-06-24T13:41:44;12.23;;;5.07;;
76749;SDS011;66447;35.844;14.468;2023-06-24T13:56:45;14.50;;;5.00;;
76749;SDS011;66447;35.844;14.468;2023-06-24T14:11:47;10.70;;;4.67;;
76749;SDS011;66447;35.844;14.468;2023-06-24T14:26:48;9.93;;;4.50;;
76749;SDS011;66447;35.844;14.468;2023-06-24T14:41:49;12.57;;;4.07;;
76749;SDS011;66447;35.844;14.468;2023-06-24T14:56:50;10.70;;;4.53;;
76749;SDS011;66447;35.844;14.468;2023-06-24T15:11:51;17.67;;;4.95;;
76749;SDS011;66447;35.844;14.468;2023-06-24T15:26:58;7.70;;;3.97;;
76749;SDS011;66447;35.844;14.468;2023-06-24T15:42:00;13.00;;;4.90;;
76749;SDS011;66447;35.844;14.468;2023-06-24T15:57:01;11.33;;;4.67;;
76749;SDS011;66447;35.844;14.468;2023-06-24T16:12:02;14.67;;;5.57;;
76749;SDS011;66447;35.844;14.468;2023-06-24T16:27:03;12.50;;;4.10;;
76749;SDS011;66447;35.844;14.468;2023-06-24T16:42:04;13.57;;;4.10;;
76749;SDS011;66447;35.844;14.468;2023-06-24T16:57:05;14.00;;;4.73;;
76749;SDS011;66447;35.844;14.468;2023-06-24T17:12:06;13.95;;;4.72;;
76749;SDS011;66447;35.844;14.468;2023-06-24T17:27:07;23.53;;;5.80;;
76749;SDS011;66447;35.844;14.468;2023-06-24T17:42:16;19.50;;;6.40;;
76749;SDS011;66447;35.844;14.468;2023-06-24T17:57:19;17.23;;;5.83;;
76749;SDS011;66447;35.844;14.468;2023-06-24T18:12:20;28.57;;;7.40;;
76749;SDS011;66447;35.844;14.468;2023-06-24T18:27:21;21.67;;;6.30;;
76749;SDS011;66447;35.844;14.468;2023-06-24T18:42:21;16.08;;;6.75;;
76749;SDS011;66447;35.844;14.468;2023-06-24T18:57:23;21.43;;;8.50;;
76749;SDS011;66447;35.844;14.468;2023-06-24T19:12:24;19.70;;;7.80;;
76749;SDS011;66447;35.844;14.468;2023-06-24T19:27:25;21.15;;;7.63;;
76749;SDS011;66447;35.844;14.468;2023-06-24T19:42:26;23.85;;;8.02;;
76749;SDS011;66447;35.844;14.468;2023-06-24T19:57:27;21.67;;;7.23;;
76749;SDS011;66447;35.844;14.468;2023-06-24T20:12:28;19.43;;;7.03;;
76749;SDS011;66447;35.844;14.468;2023-06-24T20:27:29;20.37;;;7.57;;
76749;SDS011;66447;35.844;14.468;2023-06-24T20:42:32;25.50;;;8.23;;
76749;SDS011;66447;35.844;14.468;2023-06-24T20:57:33;20.23;;;8.45;;
76749;SDS011;66447;35.844;14.468;2023-06-24T21:12:34;21.13;;;7.85;;
76749;SDS011;66447;35.844;14.468;2023-06-24T21:27:35;25.38;;;8.70;;
76749;SDS011;66447;35.844;14.468;2023-06-24T21:42:36;19.67;;;8.68;;
76749;SDS011;66447;35.844;14.468;2023-06-24T21:57:37;25.40;;;8.98;;
76749;SDS011;66447;35.844;14.468;2023-06-24T22:12:38;27.92;;;9.93;;
76749;SDS011;66447;35.844;14.468;2023-06-24T22:27:39;24.33;;;10.25;;
76749;SDS011;66447;35.844;14.468;2023-06-24T22:42:40;26.88;;;12.18;;
76749;SDS011;66447;35.844;14.468;2023-06-24T22:57:41;27.65;;;10.32;;
76749;SDS011;66447;35.844;14.468;2023-06-24T23:12:41;24.85;;;10.85;;
76749;SDS011;66447;35.844;14.468;2023-06-24T23:27:51;28.35;;;10.10;;
76749;SDS011;66447;35.844;14.468;2023-06-24T23:42:56;25.20;;;10.77;;
76749;SDS011;66447;35.844;14.468;2023-06-24T23:57:57;26.58;;;11.20;;
